This is the latest recevied weather packets stored in our database for station/object OE-11099. If no packets are shown the sender has not sent any weather packets the latest 10 day(s).
| Time | Temp. | Humidity | Pressure | Rain* | Wind** | Luminosity | Snow |
|---|---|---|---|---|---|---|---|
| 1787817905 | 26.67° C | 48% | 1011.9 hPa | 0 mm | - | 432 W/m² | - |
| 1787817305 | 25.56° C | 45% | 1011.9 hPa | 0 mm | - | 299 W/m² | - |
| 1787816478 | 25° C | 45% | 1012.1 hPa | 0 mm | - | 199 W/m² | - |
| 1787816105 | 25.56° C | 47% | 1012 hPa | 0 mm | - | 346 W/m² | - |
| 1787814679 | 26.11° C | 45% | 1011.4 hPa | 0 mm | - | 359 W/m² | - |
| 1787814306 | 25.56° C | 43% | 1011.6 hPa | 0 mm | - | 273 W/m² | - |
| 1787813706 | 25° C | 42% | 1011.8 hPa | 0 mm | - | 193 W/m² | - |
| 1787812879 | 24.44° C | 43% | 1012.2 hPa | 0 mm | - | 113 W/m² | - |
| 1787812506 | 25° C | 42% | 1012.2 hPa | 0 mm | - | 106 W/m² | - |
| 1787811906 | 24.44° C | 43% | 1012.2 hPa | 0 mm | - | 86 W/m² | - |
| 1787811318 | 24.44° C | 43% | 1012.4 hPa | 0 mm | - | 100 W/m² | - |
| 1787810706 | 24.44° C | 42% | 1012.5 hPa | 0 mm | - | 86 W/m² | - |
| 1787810106 | 24.44° C | 41% | 1012.4 hPa | 0 mm | - | 60 W/m² | - |
| 1787809279 | 23.89° C | 45% | 1012.5 hPa | 0 mm | - | 53 W/m² | - |
| 1787808906 | 23.33° C | 46% | 1012.4 hPa | 0 mm | - | 47 W/m² | - |
| 1787808306 | 23.33° C | 44% | 1012.4 hPa | 0 mm | - | 33 W/m² | - |
| 1787807479 | 22.78° C | 46% | 1012.6 hPa | 0 mm | - | 20 W/m² | - |
| 1787807106 | 22.22° C | 49% | 1012.4 hPa | 0 mm | - | 7 W/m² | - |
| 1787806506 | 22.78° C | 47% | 1012.2 hPa | 0 mm | - | 0 W/m² | - |
| 1787805678 | 21.67° C | 52% | 1012.5 hPa | 0 mm | - | 0 W/m² | - |
| 1787805306 | 22.22° C | 48% | 1012.7 hPa | 0 mm | - | 0 W/m² | - |
| 1787804706 | 22.78° C | 47% | 1012.6 hPa | 0 mm | - | 0 W/m² | - |
| 1787803879 | 23.33° C | 46% | 1012.5 hPa | 0 mm | - | 0 W/m² | - |
| 1787803506 | 22.78° C | 47% | 1012.6 hPa | 0 mm | - | 0 W/m² | - |
| 1787802906 | 22.78° C | 48% | 1012.6 hPa | 0 mm | - | 0 W/m² | - |
* Rain latest hour (hover to see other rain measurements)
** Current wind speed in m/s (hover to see current wind gust speed)